sensor_id;sensor_type;location;lat;lon;timestamp;P1;durP1;ratioP1;P2;durP2;ratioP2
42988;SDS011;28622;43.716;20.668;2022-09-28T00:02:02;6.07;;;3.17;;
42988;SDS011;28622;43.716;20.668;2022-09-28T00:04:29;5.50;;;2.63;;
42988;SDS011;28622;43.716;20.668;2022-09-28T00:06:57;5.45;;;2.90;;
42988;SDS011;28622;43.716;20.668;2022-09-28T00:09:23;4.13;;;2.42;;
42988;SDS011;28622;43.716;20.668;2022-09-28T00:11:49;2.83;;;1.60;;
42988;SDS011;28622;43.716;20.668;2022-09-28T00:14:14;2.35;;;1.58;;
42988;SDS011;28622;43.716;20.668;2022-09-28T00:16:42;7.18;;;2.03;;
42988;SDS011;28622;43.716;20.668;2022-09-28T00:19:09;3.30;;;2.25;;
42988;SDS011;28622;43.716;20.668;2022-09-28T00:21:37;12.27;;;2.33;;
42988;SDS011;28622;43.716;20.668;2022-09-28T00:24:04;2.88;;;1.52;;
42988;SDS011;28622;43.716;20.668;2022-09-28T00:26:49;3.97;;;1.70;;
42988;SDS011;28622;43.716;20.668;2022-09-28T00:31:59;2.40;;;1.45;;
42988;SDS011;28622;43.716;20.668;2022-09-28T00:34:34;2.22;;;1.33;;
42988;SDS011;28622;43.716;20.668;2022-09-28T00:37:03;2.63;;;1.40;;
42988;SDS011;28622;43.716;20.668;2022-09-28T00:39:32;3.72;;;1.40;;
42988;SDS011;28622;43.716;20.668;2022-09-28T00:42:00;3.45;;;1.40;;
42988;SDS011;28622;43.716;20.668;2022-09-28T00:49:47;2.70;;;1.63;;
42988;SDS011;28622;43.716;20.668;2022-09-28T00:55:04;3.75;;;2.08;;
42988;SDS011;28622;43.716;20.668;2022-09-28T00:57:34;4.32;;;1.73;;
42988;SDS011;28622;43.716;20.668;2022-09-28T01:00:02;6.47;;;3.30;;
42988;SDS011;28622;43.716;20.668;2022-09-28T01:02:30;6.25;;;2.92;;
42988;SDS011;28622;43.716;20.668;2022-09-28T01:04:56;4.72;;;2.17;;
42988;SDS011;28622;43.716;20.668;2022-09-28T01:07:23;5.78;;;2.75;;
42988;SDS011;28622;43.716;20.668;2022-09-28T01:09:49;3.25;;;2.33;;
42988;SDS011;28622;43.716;20.668;2022-09-28T01:12:15;4.68;;;2.08;;
42988;SDS011;28622;43.716;20.668;2022-09-28T01:14:41;6.60;;;1.88;;
42988;SDS011;28622;43.716;20.668;2022-09-28T01:17:21;3.00;;;2.08;;
42988;SDS011;28622;43.716;20.668;2022-09-28T01:28:03;3.45;;;2.03;;
42988;SDS011;28622;43.716;20.668;2022-09-28T01:30:40;2.33;;;1.35;;
42988;SDS011;28622;43.716;20.668;2022-09-28T01:33:28;2.25;;;1.25;;
42988;SDS011;28622;43.716;20.668;2022-09-28T01:36:17;2.97;;;2.08;;
42988;SDS011;28622;43.716;20.668;2022-09-28T01:39:08;4.03;;;1.75;;
42988;SDS011;28622;43.716;20.668;2022-09-28T01:41:38;3.17;;;1.63;;
42988;SDS011;28622;43.716;20.668;2022-09-28T01:44:09;2.03;;;1.20;;
42988;SDS011;28622;43.716;20.668;2022-09-28T01:46:38;3.17;;;1.25;;
42988;SDS011;28622;43.716;20.668;2022-09-28T01:49:27;1.60;;;1.30;;
42988;SDS011;28622;43.716;20.668;2022-09-28T01:52:08;2.72;;;1.35;;
42988;SDS011;28622;43.716;20.668;2022-09-28T01:57:15;2.13;;;1.38;;
42988;SDS011;28622;43.716;20.668;2022-09-28T01:59:49;2.10;;;1.25;;
42988;SDS011;28622;43.716;20.668;2022-09-28T02:02:32;1.75;;;1.40;;
42988;SDS011;28622;43.716;20.668;2022-09-28T02:05:13;1.92;;;1.38;;
42988;SDS011;28622;43.716;20.668;2022-09-28T02:07:57;2.83;;;1.65;;
42988;SDS011;28622;43.716;20.668;2022-09-28T02:10:31;3.22;;;1.65;;
42988;SDS011;28622;43.716;20.668;2022-09-28T02:13:04;1.85;;;1.27;;
42988;SDS011;28622;43.716;20.668;2022-09-28T02:15:39;1.52;;;1.27;;
42988;SDS011;28622;43.716;20.668;2022-09-28T02:18:18;1.85;;;1.40;;
42988;SDS011;28622;43.716;20.668;2022-09-28T02:20:51;4.28;;;1.77;;
42988;SDS011;28622;43.716;20.668;2022-09-28T02:23:23;5.40;;;1.60;;
42988;SDS011;28622;43.716;20.668;2022-09-28T02:25:59;6.15;;;1.65;;
42988;SDS011;28622;43.716;20.668;2022-09-28T02:28:27;2.50;;;1.15;;
42988;SDS011;28622;43.716;20.668;2022-09-28T02:30:54;1.10;;;0.88;;
42988;SDS011;28622;43.716;20.668;2022-09-28T02:35:48;2.25;;;0.90;;
42988;SDS011;28622;43.716;20.668;2022-09-28T02:38:14;1.42;;;0.90;;
42988;SDS011;28622;43.716;20.668;2022-09-28T02:40:41;0.70;;;0.70;;
42988;SDS011;28622;43.716;20.668;2022-09-28T02:51:18;2.75;;;0.98;;
42988;SDS011;28622;43.716;20.668;2022-09-28T02:56:32;1.10;;;0.63;;
42988;SDS011;28622;43.716;20.668;2022-09-28T02:59:10;1.27;;;0.80;;
42988;SDS011;28622;43.716;20.668;2022-09-28T03:07:28;2.70;;;1.65;;
42988;SDS011;28622;43.716;20.668;2022-09-28T03:10:12;2.00;;;1.00;;
42988;SDS011;28622;43.716;20.668;2022-09-28T03:13:06;1.05;;;0.88;;
42988;SDS011;28622;43.716;20.668;2022-09-28T03:15:34;6.32;;;2.28;;
42988;SDS011;28622;43.716;20.668;2022-09-28T03:18:00;6.43;;;2.70;;
42988;SDS011;28622;43.716;20.668;2022-09-28T03:20:26;8.02;;;3.97;;
42988;SDS011;28622;43.716;20.668;2022-09-28T03:22:53;9.30;;;4.80;;
42988;SDS011;28622;43.716;20.668;2022-09-28T03:25:19;13.18;;;7.07;;
42988;SDS011;28622;43.716;20.668;2022-09-28T03:27:45;15.27;;;7.70;;
42988;SDS011;28622;43.716;20.668;2022-09-28T03:30:11;15.85;;;7.93;;
42988;SDS011;28622;43.716;20.668;2022-09-28T03:32:37;15.73;;;6.32;;
42988;SDS011;28622;43.716;20.668;2022-09-28T03:35:04;13.25;;;6.97;;
42988;SDS011;28622;43.716;20.668;2022-09-28T03:37:31;10.45;;;6.30;;
42988;SDS011;28622;43.716;20.668;2022-09-28T03:39:57;15.60;;;5.30;;
42988;SDS011;28622;43.716;20.668;2022-09-28T03:42:23;11.07;;;3.85;;
42988;SDS011;28622;43.716;20.668;2022-09-28T03:44:49;11.27;;;3.72;;
42988;SDS011;28622;43.716;20.668;2022-09-28T03:47:14;5.95;;;2.90;;
42988;SDS011;28622;43.716;20.668;2022-09-28T03:49:42;6.75;;;3.85;;
42988;SDS011;28622;43.716;20.668;2022-09-28T03:52:08;10.07;;;4.13;;
42988;SDS011;28622;43.716;20.668;2022-09-28T03:54:34;6.00;;;3.30;;
42988;SDS011;28622;43.716;20.668;2022-09-28T03:56:59;10.38;;;4.50;;
42988;SDS011;28622;43.716;20.668;2022-09-28T03:59:25;8.48;;;3.95;;
42988;SDS011;28622;43.716;20.668;2022-09-28T04:01:51;5.45;;;2.97;;
42988;SDS011;28622;43.716;20.668;2022-09-28T04:04:17;4.78;;;2.40;;
42988;SDS011;28622;43.716;20.668;2022-09-28T04:06:42;8.13;;;3.42;;
42988;SDS011;28622;43.716;20.668;2022-09-28T04:09:09;5.68;;;3.45;;
42988;SDS011;28622;43.716;20.668;2022-09-28T04:11:35;6.07;;;3.88;;
42988;SDS011;28622;43.716;20.668;2022-09-28T04:14:01;6.75;;;3.22;;
42988;SDS011;28622;43.716;20.668;2022-09-28T04:16:27;6.57;;;3.30;;
42988;SDS011;28622;43.716;20.668;2022-09-28T04:18:52;7.70;;;3.65;;
42988;SDS011;28622;43.716;20.668;2022-09-28T04:21:18;3.40;;;2.45;;
42988;SDS011;28622;43.716;20.668;2022-09-28T04:23:45;7.80;;;3.97;;
42988;SDS011;28622;43.716;20.668;2022-09-28T04:26:12;6.30;;;3.47;;
42988;SDS011;28622;43.716;20.668;2022-09-28T04:28:44;4.63;;;2.70;;
42988;SDS011;28622;43.716;20.668;2022-09-28T04:31:29;5.75;;;3.33;;
42988;SDS011;28622;43.716;20.668;2022-09-28T04:34:00;4.50;;;2.33;;
42988;SDS011;28622;43.716;20.668;2022-09-28T04:36:26;13.05;;;2.13;;
42988;SDS011;28622;43.716;20.668;2022-09-28T04:38:52;2.33;;;1.60;;
42988;SDS011;28622;43.716;20.668;2022-09-28T04:41:18;7.72;;;3.13;;
42988;SDS011;28622;43.716;20.668;2022-09-28T04:43:46;3.47;;;1.55;;
42988;SDS011;28622;43.716;20.668;2022-09-28T04:46:13;3.05;;;1.55;;
42988;SDS011;28622;43.716;20.668;2022-09-28T04:48:38;9.20;;;3.00;;
42988;SDS011;28622;43.716;20.668;2022-09-28T04:51:04;7.47;;;4.05;;
42988;SDS011;28622;43.716;20.668;2022-09-28T04:53:30;5.50;;;2.70;;
42988;SDS011;28622;43.716;20.668;2022-09-28T04:55:58;3.33;;;1.98;;
42988;SDS011;28622;43.716;20.668;2022-09-28T04:58:26;5.25;;;2.55;;
42988;SDS011;28622;43.716;20.668;2022-09-28T05:00:57;3.22;;;2.00;;
42988;SDS011;28622;43.716;20.668;2022-09-28T05:03:24;3.92;;;1.83;;
42988;SDS011;28622;43.716;20.668;2022-09-28T05:05:51;2.28;;;1.88;;
42988;SDS011;28622;43.716;20.668;2022-09-28T05:08:16;2.28;;;1.50;;
42988;SDS011;28622;43.716;20.668;2022-09-28T05:10:42;1.77;;;1.40;;
42988;SDS011;28622;43.716;20.668;2022-09-28T05:13:10;2.83;;;1.27;;
42988;SDS011;28622;43.716;20.668;2022-09-28T05:15:37;3.22;;;1.67;;
42988;SDS011;28622;43.716;20.668;2022-09-28T05:18:05;3.25;;;1.60;;
42988;SDS011;28622;43.716;20.668;2022-09-28T05:20:31;2.30;;;1.70;;
42988;SDS011;28622;43.716;20.668;2022-09-28T05:22:57;6.30;;;3.60;;
42988;SDS011;28622;43.716;20.668;2022-09-28T05:25:23;4.10;;;2.70;;
42988;SDS011;28622;43.716;20.668;2022-09-28T05:27:57;2.67;;;1.90;;
42988;SDS011;28622;43.716;20.668;2022-09-28T05:30:25;3.15;;;2.00;;
42988;SDS011;28622;43.716;20.668;2022-09-28T05:32:51;4.47;;;2.75;;
42988;SDS011;28622;43.716;20.668;2022-09-28T05:35:18;7.22;;;4.05;;
42988;SDS011;28622;43.716;20.668;2022-09-28T05:37:44;13.85;;;6.72;;
42988;SDS011;28622;43.716;20.668;2022-09-28T05:40:10;9.95;;;5.00;;
42988;SDS011;28622;43.716;20.668;2022-09-28T05:42:36;4.85;;;3.13;;
42988;SDS011;28622;43.716;20.668;2022-09-28T05:45:02;4.68;;;3.05;;
42988;SDS011;28622;43.716;20.668;2022-09-28T05:47:28;4.25;;;2.40;;
42988;SDS011;28622;43.716;20.668;2022-09-28T05:49:54;5.68;;;3.92;;
42988;SDS011;28622;43.716;20.668;2022-09-28T05:52:20;5.70;;;3.33;;
42988;SDS011;28622;43.716;20.668;2022-09-28T05:54:46;5.05;;;2.53;;
42988;SDS011;28622;43.716;20.668;2022-09-28T05:57:12;3.85;;;2.47;;
42988;SDS011;28622;43.716;20.668;2022-09-28T05:59:38;7.72;;;3.63;;
42988;SDS011;28622;43.716;20.668;2022-09-28T06:02:04;4.10;;;2.90;;
42988;SDS011;28622;43.716;20.668;2022-09-28T06:04:31;5.18;;;2.35;;
42988;SDS011;28622;43.716;20.668;2022-09-28T06:06:57;4.63;;;2.65;;
42988;SDS011;28622;43.716;20.668;2022-09-28T06:09:23;9.95;;;3.88;;
42988;SDS011;28622;43.716;20.668;2022-09-28T06:11:50;6.00;;;3.33;;
42988;SDS011;28622;43.716;20.668;2022-09-28T06:14:16;7.93;;;5.07;;
42988;SDS011;28622;43.716;20.668;2022-09-28T06:16:42;6.03;;;3.50;;
42988;SDS011;28622;43.716;20.668;2022-09-28T06:19:09;8.40;;;4.60;;
42988;SDS011;28622;43.716;20.668;2022-09-28T06:21:36;6.95;;;3.45;;
42988;SDS011;28622;43.716;20.668;2022-09-28T06:24:02;7.03;;;4.18;;
42988;SDS011;28622;43.716;20.668;2022-09-28T06:26:28;4.80;;;3.67;;
42988;SDS011;28622;43.716;20.668;2022-09-28T06:28:54;4.18;;;3.00;;
42988;SDS011;28622;43.716;20.668;2022-09-28T06:31:21;5.70;;;2.90;;
42988;SDS011;28622;43.716;20.668;2022-09-28T06:33:49;5.53;;;3.40;;
42988;SDS011;28622;43.716;20.668;2022-09-28T06:36:15;6.93;;;4.10;;
42988;SDS011;28622;43.716;20.668;2022-09-28T06:38:42;9.38;;;5.13;;
42988;SDS011;28622;43.716;20.668;2022-09-28T06:41:08;8.23;;;4.88;;
42988;SDS011;28622;43.716;20.668;2022-09-28T06:43:35;10.23;;;6.20;;
42988;SDS011;28622;43.716;20.668;2022-09-28T06:46:03;8.15;;;5.32;;
42988;SDS011;28622;43.716;20.668;2022-09-28T06:48:30;9.25;;;5.75;;
42988;SDS011;28622;43.716;20.668;2022-09-28T06:50:57;6.80;;;4.22;;
42988;SDS011;28622;43.716;20.668;2022-09-28T06:53:26;6.40;;;4.32;;
42988;SDS011;28622;43.716;20.668;2022-09-28T06:55:53;5.38;;;3.55;;
42988;SDS011;28622;43.716;20.668;2022-09-28T06:58:20;5.82;;;3.83;;
42988;SDS011;28622;43.716;20.668;2022-09-28T07:00:48;8.32;;;3.95;;
42988;SDS011;28622;43.716;20.668;2022-09-28T07:03:19;8.73;;;4.00;;
42988;SDS011;28622;43.716;20.668;2022-09-28T07:05:49;7.20;;;4.57;;
42988;SDS011;28622;43.716;20.668;2022-09-28T07:08:19;6.97;;;4.20;;
42988;SDS011;28622;43.716;20.668;2022-09-28T07:10:49;6.65;;;3.72;;
42988;SDS011;28622;43.716;20.668;2022-09-28T07:13:20;8.18;;;4.25;;
42988;SDS011;28622;43.716;20.668;2022-09-28T07:15:47;4.45;;;3.53;;
42988;SDS011;28622;43.716;20.668;2022-09-28T07:18:17;6.45;;;3.83;;
42988;SDS011;28622;43.716;20.668;2022-09-28T07:20:43;9.50;;;4.30;;
42988;SDS011;28622;43.716;20.668;2022-09-28T07:23:09;8.82;;;3.10;;
42988;SDS011;28622;43.716;20.668;2022-09-28T07:25:35;4.00;;;2.70;;
42988;SDS011;28622;43.716;20.668;2022-09-28T07:28:04;9.40;;;4.80;;
42988;SDS011;28622;43.716;20.668;2022-09-28T07:30:31;4.00;;;2.33;;
42988;SDS011;28622;43.716;20.668;2022-09-28T07:32:59;6.07;;;2.80;;
42988;SDS011;28622;43.716;20.668;2022-09-28T07:35:25;4.82;;;2.72;;
42988;SDS011;28622;43.716;20.668;2022-09-28T07:37:58;4.95;;;3.08;;
42988;SDS011;28622;43.716;20.668;2022-09-28T07:40:28;9.07;;;3.75;;
42988;SDS011;28622;43.716;20.668;2022-09-28T07:43:14;4.38;;;2.97;;
42988;SDS011;28622;43.716;20.668;2022-09-28T07:45:45;3.95;;;2.47;;
42988;SDS011;28622;43.716;20.668;2022-09-28T07:48:12;3.67;;;2.00;;
42988;SDS011;28622;43.716;20.668;2022-09-28T07:50:41;2.78;;;1.67;;
42988;SDS011;28622;43.716;20.668;2022-09-28T07:53:11;2.60;;;1.58;;
42988;SDS011;28622;43.716;20.668;2022-09-28T07:55:37;2.40;;;1.63;;
42988;SDS011;28622;43.716;20.668;2022-09-28T07:58:03;2.88;;;1.50;;
42988;SDS011;28622;43.716;20.668;2022-09-28T08:00:29;4.90;;;2.83;;
42988;SDS011;28622;43.716;20.668;2022-09-28T08:03:00;2.85;;;1.67;;
42988;SDS011;28622;43.716;20.668;2022-09-28T08:05:27;2.95;;;1.77;;
42988;SDS011;28622;43.716;20.668;2022-09-28T08:07:55;3.42;;;1.95;;
42988;SDS011;28622;43.716;20.668;2022-09-28T08:10:23;7.40;;;3.03;;
42988;SDS011;28622;43.716;20.668;2022-09-28T08:12:54;8.55;;;2.38;;
42988;SDS011;28622;43.716;20.668;2022-09-28T08:15:21;4.25;;;2.13;;
42988;SDS011;28622;43.716;20.668;2022-09-28T08:17:47;5.00;;;2.10;;
42988;SDS011;28622;43.716;20.668;2022-09-28T08:20:13;4.90;;;2.65;;
42988;SDS011;28622;43.716;20.668;2022-09-28T08:23:04;4.47;;;2.08;;
42988;SDS011;28622;43.716;20.668;2022-09-28T08:25:31;5.05;;;2.13;;
42988;SDS011;28622;43.716;20.668;2022-09-28T08:27:57;4.18;;;2.05;;
42988;SDS011;28622;43.716;20.668;2022-09-28T08:30:24;4.82;;;2.72;;
42988;SDS011;28622;43.716;20.668;2022-09-28T08:32:51;5.15;;;2.33;;
42988;SDS011;28622;43.716;20.668;2022-09-28T08:35:17;3.97;;;1.83;;
42988;SDS011;28622;43.716;20.668;2022-09-28T08:37:48;4.68;;;2.55;;
42988;SDS011;28622;43.716;20.668;2022-09-28T08:40:19;3.70;;;2.25;;
42988;SDS011;28622;43.716;20.668;2022-09-28T08:42:54;5.13;;;2.30;;
42988;SDS011;28622;43.716;20.668;2022-09-28T08:45:27;5.63;;;2.78;;
42988;SDS011;28622;43.716;20.668;2022-09-28T08:48:16;2.97;;;1.90;;
42988;SDS011;28622;43.716;20.668;2022-09-28T08:51:17;3.83;;;2.38;;
42988;SDS011;28622;43.716;20.668;2022-09-28T08:59:03;3.40;;;1.67;;
42988;SDS011;28622;43.716;20.668;2022-09-28T09:01:34;6.30;;;1.90;;
42988;SDS011;28622;43.716;20.668;2022-09-28T09:04:05;7.03;;;2.05;;
42988;SDS011;28622;43.716;20.668;2022-09-28T09:11:52;3.33;;;1.73;;
42988;SDS011;28622;43.716;20.668;2022-09-28T09:22:39;3.20;;;1.75;;
42988;SDS011;28622;43.716;20.668;2022-09-28T09:30:51;4.60;;;2.30;;
42988;SDS011;28622;43.716;20.668;2022-09-28T09:36:27;2.58;;;1.60;;
42988;SDS011;28622;43.716;20.668;2022-09-28T09:42:05;2.08;;;1.10;;
42988;SDS011;28622;43.716;20.668;2022-09-28T09:45:06;4.00;;;1.92;;
42988;SDS011;28622;43.716;20.668;2022-09-28T09:47:52;5.80;;;1.85;;
42988;SDS011;28622;43.716;20.668;2022-09-28T09:50:48;3.55;;;1.80;;
42988;SDS011;28622;43.716;20.668;2022-09-28T09:53:33;3.17;;;1.52;;
42988;SDS011;28622;43.716;20.668;2022-09-28T09:58:43;3.30;;;1.60;;
42988;SDS011;28622;43.716;20.668;2022-09-28T10:01:16;3.50;;;1.52;;
42988;SDS011;28622;43.716;20.668;2022-09-28T10:03:45;1.80;;;1.23;;
42988;SDS011;28622;43.716;20.668;2022-09-28T10:06:32;1.63;;;1.08;;
42988;SDS011;28622;43.716;20.668;2022-09-28T10:09:02;2.90;;;1.50;;
42988;SDS011;28622;43.716;20.668;2022-09-28T10:11:38;4.93;;;1.55;;
42988;SDS011;28622;43.716;20.668;2022-09-28T10:14:12;2.00;;;0.93;;
42988;SDS011;28622;43.716;20.668;2022-09-28T10:16:42;4.43;;;1.05;;
42988;SDS011;28622;43.716;20.668;2022-09-28T10:19:10;1.70;;;1.10;;
42988;SDS011;28622;43.716;20.668;2022-09-28T10:21:37;1.45;;;0.95;;
42988;SDS011;28622;43.716;20.668;2022-09-28T10:24:07;4.38;;;1.63;;
42988;SDS011;28622;43.716;20.668;2022-09-28T10:26:43;1.67;;;0.88;;
42988;SDS011;28622;43.716;20.668;2022-09-28T10:29:15;11.00;;;2.88;;
42988;SDS011;28622;43.716;20.668;2022-09-28T10:31:48;1.80;;;0.93;;
42988;SDS011;28622;43.716;20.668;2022-09-28T10:34:17;1.00;;;0.75;;
42988;SDS011;28622;43.716;20.668;2022-09-28T10:36:51;1.88;;;0.70;;
42988;SDS011;28622;43.716;20.668;2022-09-28T10:42:10;1.55;;;0.85;;
42988;SDS011;28622;43.716;20.668;2022-09-28T10:44:55;2.25;;;1.10;;
42988;SDS011;28622;43.716;20.668;2022-09-28T10:47:29;3.13;;;1.10;;
42988;SDS011;28622;43.716;20.668;2022-09-28T10:49:56;2.35;;;1.33;;
42988;SDS011;28622;43.716;20.668;2022-09-28T10:52:36;1.20;;;0.65;;
42988;SDS011;28622;43.716;20.668;2022-09-28T10:57:45;3.80;;;0.95;;
42988;SDS011;28622;43.716;20.668;2022-09-28T11:03:16;1.55;;;0.85;;
42988;SDS011;28622;43.716;20.668;2022-09-28T11:05:57;1.73;;;0.85;;
42988;SDS011;28622;43.716;20.668;2022-09-28T11:08:25;2.10;;;0.90;;
42988;SDS011;28622;43.716;20.668;2022-09-28T11:11:18;2.10;;;1.10;;
42988;SDS011;28622;43.716;20.668;2022-09-28T11:16:20;2.13;;;1.05;;
42988;SDS011;28622;43.716;20.668;2022-09-28T11:18:48;3.28;;;1.02;;
42988;SDS011;28622;43.716;20.668;2022-09-28T11:21:15;2.55;;;1.13;;
42988;SDS011;28622;43.716;20.668;2022-09-28T11:23:53;1.48;;;1.10;;
42988;SDS011;28622;43.716;20.668;2022-09-28T11:26:25;4.78;;;1.20;;
42988;SDS011;28622;43.716;20.668;2022-09-28T11:28:58;2.65;;;1.20;;
42988;SDS011;28622;43.716;20.668;2022-09-28T11:31:25;3.45;;;1.52;;
42988;SDS011;28622;43.716;20.668;2022-09-28T11:42:32;2.67;;;1.35;;
42988;SDS011;28622;43.716;20.668;2022-09-28T11:47:59;1.92;;;1.10;;
42988;SDS011;28622;43.716;20.668;2022-09-28T11:55:58;2.55;;;1.05;;
42988;SDS011;28622;43.716;20.668;2022-09-28T11:58:34;2.97;;;1.25;;
42988;SDS011;28622;43.716;20.668;2022-09-28T12:01:03;3.58;;;1.58;;
42988;SDS011;28622;43.716;20.668;2022-09-28T12:03:49;1.63;;;0.95;;
42988;SDS011;28622;43.716;20.668;2022-09-28T12:06:23;3.33;;;1.08;;
42988;SDS011;28622;43.716;20.668;2022-09-28T12:08:56;2.28;;;1.05;;
42988;SDS011;28622;43.716;20.668;2022-09-28T12:11:38;2.08;;;0.90;;
42988;SDS011;28622;43.716;20.668;2022-09-28T12:14:09;1.63;;;1.10;;
42988;SDS011;28622;43.716;20.668;2022-09-28T12:16:45;1.92;;;1.10;;
42988;SDS011;28622;43.716;20.668;2022-09-28T12:19:23;2.33;;;1.48;;
42988;SDS011;28622;43.716;20.668;2022-09-28T12:21:56;2.33;;;1.27;;
42988;SDS011;28622;43.716;20.668;2022-09-28T12:24:27;2.60;;;0.90;;
42988;SDS011;28622;43.716;20.668;2022-09-28T12:27:12;1.90;;;0.85;;
42988;SDS011;28622;43.716;20.668;2022-09-28T12:29:49;1.23;;;0.90;;
42988;SDS011;28622;43.716;20.668;2022-09-28T12:35:11;1.65;;;1.20;;
42988;SDS011;28622;43.716;20.668;2022-09-28T12:37:49;2.70;;;1.30;;
42988;SDS011;28622;43.716;20.668;2022-09-28T12:48:48;2.05;;;1.27;;
42988;SDS011;28622;43.716;20.668;2022-09-28T12:59:44;3.22;;;1.08;;
42988;SDS011;28622;43.716;20.668;2022-09-28T13:08:34;3.50;;;1.35;;
42988;SDS011;28622;43.716;20.668;2022-09-28T13:14:17;3.40;;;1.35;;
42988;SDS011;28622;43.716;20.668;2022-09-28T13:24:42;3.03;;;1.42;;
42988;SDS011;28622;43.716;20.668;2022-09-28T13:27:14;2.83;;;1.40;;
42988;SDS011;28622;43.716;20.668;2022-09-28T13:29:44;4.80;;;1.70;;
42988;SDS011;28622;43.716;20.668;2022-09-28T13:32:13;1.83;;;1.10;;
42988;SDS011;28622;43.716;20.668;2022-09-28T13:34:41;8.93;;;1.80;;
42988;SDS011;28622;43.716;20.668;2022-09-28T13:39:49;2.95;;;1.15;;
42988;SDS011;28622;43.716;20.668;2022-09-28T14:03:55;4.65;;;1.75;;
42988;SDS011;28622;43.716;20.668;2022-09-28T14:11:36;3.88;;;2.00;;
42988;SDS011;28622;43.716;20.668;2022-09-28T14:16:32;4.13;;;1.83;;
42988;SDS011;28622;43.716;20.668;2022-09-28T14:29:43;2.65;;;1.40;;
42988;SDS011;28622;43.716;20.668;2022-09-28T14:34:42;4.60;;;1.67;;
42988;SDS011;28622;43.716;20.668;2022-09-28T14:37:19;4.70;;;2.25;;
42988;SDS011;28622;43.716;20.668;2022-09-28T14:40:15;10.00;;;2.08;;
42988;SDS011;28622;43.716;20.668;2022-09-28T14:43:19;7.40;;;2.25;;
42988;SDS011;28622;43.716;20.668;2022-09-28T14:45:48;4.50;;;1.90;;
42988;SDS011;28622;43.716;20.668;2022-09-28T14:48:19;5.10;;;2.10;;
42988;SDS011;28622;43.716;20.668;2022-09-28T14:50:46;2.78;;;1.52;;
42988;SDS011;28622;43.716;20.668;2022-09-28T14:53:17;3.88;;;2.05;;
42988;SDS011;28622;43.716;20.668;2022-09-28T14:55:47;2.92;;;1.63;;
42988;SDS011;28622;43.716;20.668;2022-09-28T14:58:22;4.00;;;1.73;;
42988;SDS011;28622;43.716;20.668;2022-09-28T15:00:53;4.05;;;1.88;;
42988;SDS011;28622;43.716;20.668;2022-09-28T15:03:27;7.85;;;4.15;;
42988;SDS011;28622;43.716;20.668;2022-09-28T15:05:55;7.65;;;3.30;;
42988;SDS011;28622;43.716;20.668;2022-09-28T15:08:21;3.83;;;2.67;;
42988;SDS011;28622;43.716;20.668;2022-09-28T15:10:48;6.22;;;2.92;;
42988;SDS011;28622;43.716;20.668;2022-09-28T15:13:19;6.85;;;2.58;;
42988;SDS011;28622;43.716;20.668;2022-09-28T15:16:11;6.40;;;2.65;;
42988;SDS011;28622;43.716;20.668;2022-09-28T15:18:45;4.75;;;2.65;;
42988;SDS011;28622;43.716;20.668;2022-09-28T15:21:16;5.75;;;2.95;;
42988;SDS011;28622;43.716;20.668;2022-09-28T15:23:43;6.28;;;2.70;;
42988;SDS011;28622;43.716;20.668;2022-09-28T15:26:19;5.18;;;2.40;;
42988;SDS011;28622;43.716;20.668;2022-09-28T15:28:56;9.45;;;3.92;;
42988;SDS011;28622;43.716;20.668;2022-09-28T15:31:24;7.80;;;4.05;;
42988;SDS011;28622;43.716;20.668;2022-09-28T15:33:51;6.90;;;4.38;;
42988;SDS011;28622;43.716;20.668;2022-09-28T15:36:39;4.70;;;2.60;;
42988;SDS011;28622;43.716;20.668;2022-09-28T15:41:43;6.38;;;1.90;;
42988;SDS011;28622;43.716;20.668;2022-09-28T15:46:38;8.98;;;2.13;;
42988;SDS011;28622;43.716;20.668;2022-09-28T15:49:06;6.82;;;2.35;;
42988;SDS011;28622;43.716;20.668;2022-09-28T15:51:55;4.45;;;2.40;;
42988;SDS011;28622;43.716;20.668;2022-09-28T15:54:32;3.92;;;2.33;;
42988;SDS011;28622;43.716;20.668;2022-09-28T15:57:09;6.00;;;2.47;;
42988;SDS011;28622;43.716;20.668;2022-09-28T16:00:05;4.57;;;2.25;;
42988;SDS011;28622;43.716;20.668;2022-09-28T16:03:10;6.57;;;1.92;;
42988;SDS011;28622;43.716;20.668;2022-09-28T16:08:36;5.63;;;2.67;;
42988;SDS011;28622;43.716;20.668;2022-09-28T16:11:17;42.67;;;15.25;;
42988;SDS011;28622;43.716;20.668;2022-09-28T16:16:29;15.57;;;6.50;;
42988;SDS011;28622;43.716;20.668;2022-09-28T16:19:01;7.93;;;4.10;;
42988;SDS011;28622;43.716;20.668;2022-09-28T16:21:37;5.65;;;3.55;;
42988;SDS011;28622;43.716;20.668;2022-09-28T16:24:16;9.35;;;5.18;;
42988;SDS011;28622;43.716;20.668;2022-09-28T16:31:56;15.95;;;7.60;;
42988;SDS011;28622;43.716;20.668;2022-09-28T16:35:49;15.98;;;6.20;;
42988;SDS011;28622;43.716;20.668;2022-09-28T16:37:42;10.30;;;5.70;;
42988;SDS011;28622;43.716;20.668;2022-09-28T16:40:09;13.43;;;6.32;;
42988;SDS011;28622;43.716;20.668;2022-09-28T16:42:39;15.75;;;7.18;;
42988;SDS011;28622;43.716;20.668;2022-09-28T16:45:11;12.25;;;6.82;;
42988;SDS011;28622;43.716;20.668;2022-09-28T16:47:43;31.08;;;14.98;;
42988;SDS011;28622;43.716;20.668;2022-09-28T16:50:14;22.02;;;12.70;;
42988;SDS011;28622;43.716;20.668;2022-09-28T16:52:41;17.27;;;8.98;;
42988;SDS011;28622;43.716;20.668;2022-09-28T16:55:25;16.92;;;8.75;;
42988;SDS011;28622;43.716;20.668;2022-09-28T16:57:52;16.77;;;10.23;;
42988;SDS011;28622;43.716;20.668;2022-09-28T17:00:22;17.42;;;10.25;;
42988;SDS011;28622;43.716;20.668;2022-09-28T17:02:49;20.63;;;11.82;;
42988;SDS011;28622;43.716;20.668;2022-09-28T17:05:16;18.38;;;10.45;;
42988;SDS011;28622;43.716;20.668;2022-09-28T17:07:45;30.08;;;15.38;;
42988;SDS011;28622;43.716;20.668;2022-09-28T17:10:15;34.70;;;16.08;;
42988;SDS011;28622;43.716;20.668;2022-09-28T17:12:45;27.60;;;14.75;;
42988;SDS011;28622;43.716;20.668;2022-09-28T17:15:11;32.03;;;13.88;;
42988;SDS011;28622;43.716;20.668;2022-09-28T17:17:39;26.55;;;12.48;;
42988;SDS011;28622;43.716;20.668;2022-09-28T17:20:27;24.35;;;11.93;;
42988;SDS011;28622;43.716;20.668;2022-09-28T17:22:53;25.42;;;10.25;;
42988;SDS011;28622;43.716;20.668;2022-09-28T17:25:20;19.17;;;9.77;;
42988;SDS011;28622;43.716;20.668;2022-09-28T17:27:47;24.30;;;10.77;;
42988;SDS011;28622;43.716;20.668;2022-09-28T17:30:15;20.25;;;9.82;;
42988;SDS011;28622;43.716;20.668;2022-09-28T17:32:41;21.27;;;10.27;;
42988;SDS011;28622;43.716;20.668;2022-09-28T17:35:11;26.40;;;14.02;;
42988;SDS011;28622;43.716;20.668;2022-09-28T17:37:42;27.63;;;14.18;;
42988;SDS011;28622;43.716;20.668;2022-09-28T17:40:24;26.90;;;13.80;;
42988;SDS011;28622;43.716;20.668;2022-09-28T17:42:55;30.45;;;13.98;;
42988;SDS011;28622;43.716;20.668;2022-09-28T17:45:22;27.33;;;13.95;;
42988;SDS011;28622;43.716;20.668;2022-09-28T17:47:52;30.35;;;15.35;;
42988;SDS011;28622;43.716;20.668;2022-09-28T17:52:52;31.75;;;15.98;;
42988;SDS011;28622;43.716;20.668;2022-09-28T17:55:19;22.33;;;11.77;;
42988;SDS011;28622;43.716;20.668;2022-09-28T17:57:51;21.25;;;12.55;;
42988;SDS011;28622;43.716;20.668;2022-09-28T18:00:17;40.35;;;16.90;;
42988;SDS011;28622;43.716;20.668;2022-09-28T18:02:43;28.52;;;13.88;;
42988;SDS011;28622;43.716;20.668;2022-09-28T18:05:09;21.55;;;11.85;;
42988;SDS011;28622;43.716;20.668;2022-09-28T18:07:38;25.67;;;13.32;;
42988;SDS011;28622;43.716;20.668;2022-09-28T18:10:06;47.97;;;21.63;;
42988;SDS011;28622;43.716;20.668;2022-09-28T18:12:36;33.20;;;17.83;;
42988;SDS011;28622;43.716;20.668;2022-09-28T18:15:01;29.60;;;16.35;;
42988;SDS011;28622;43.716;20.668;2022-09-28T18:17:27;30.20;;;15.50;;